Time;durP1;ratioP1;P1;durP2;ratioP2;P2;SDS_P1;SDS_P2;PMS_P1;PMS_P2;Temp;Humidity;BMP_temperature;BMP_pressure;BME280_temperature;BME280_humidity;BME280_pressure;Samples;Min_cycle;Max_cycle;Signal;HPM_P1;HPM_P2
2021/05/20 00:00:08;;;;;;;0.30;0.20;;;;;;;11.29;100.00;100553.41;5053431;28;20451;-52
2021/05/20 00:02:35;;;;;;;0.30;0.20;;;;;;;11.48;100.00;100554.63;5053406;28;20508;-52
2021/05/20 00:05:08;;;;;;;0.30;0.20;;;;;;;11.92;100.00;100556.94;5053122;28;20530;-52
2021/05/20 00:07:34;;;;;;;0.30;0.20;;;;;;;11.60;100.00;100558.72;5053525;28;20490;-52
2021/05/20 00:10:03;;;;;;;0.30;0.20;;;;;;;11.40;100.00;100553.97;5039502;28;20455;-52
2021/05/20 00:12:29;;;;;;;0.30;0.20;;;;;;;11.60;100.00;100555.19;5053177;28;20476;-52
2021/05/20 00:14:56;;;;;;;0.30;0.20;;;;;;;11.42;100.00;100562.78;5053444;28;20451;-52
2021/05/20 00:17:23;;;;;;;0.30;0.20;;;;;;;11.48;100.00;100564.41;5053130;28;20495;-52
2021/05/20 00:19:50;;;;;;;0.93;0.93;;;;;;;11.61;100.00;100560.47;5053143;28;20481;-52
2021/05/20 00:22:16;;;;;;;0.30;0.20;;;;;;;11.39;100.00;100556.69;5052849;28;20490;-52
2021/05/20 00:24:43;;;;;;;0.30;0.20;;;;;;;11.33;100.00;100557.72;5035145;28;20919;-52
2021/05/20 00:27:10;;;;;;;0.30;0.20;;;;;;;11.36;100.00;100556.75;5053064;28;20466;-52
2021/05/20 00:29:36;;;;;;;0.30;0.20;;;;;;;11.28;100.00;100559.63;5035454;28;20477;-52
2021/05/20 00:32:03;;;;;;;0.30;0.20;;;;;;;11.35;100.00;100560.31;5053073;28;20504;-52
2021/05/20 00:34:30;;;;;;;0.30;0.20;;;;;;;11.32;100.00;100549.78;5053050;28;20457;-52
2021/05/20 00:36:56;;;;;;;0.30;0.20;;;;;;;11.30;100.00;100563.13;5051718;28;20540;-52
2021/05/20 00:39:23;;;;;;;0.30;0.20;;;;;;;11.32;100.00;100561.28;5052714;28;20451;-52
2021/05/20 00:41:50;;;;;;;0.30;0.20;;;;;;;11.13;100.00;100558.25;5035054;28;20458;-52
2021/05/20 00:44:16;;;;;;;0.30;0.20;;;;;;;11.32;100.00;100558.63;5052400;28;20517;-52
2021/05/20 00:46:43;;;;;;;0.30;0.20;;;;;;;11.37;100.00;100562.03;5050090;28;20512;-52
2021/05/20 00:49:10;;;;;;;0.30;0.20;;;;;;;11.52;100.00;100561.63;5041713;28;20525;-52
2021/05/20 00:51:40;;;;;;;0.30;0.20;;;;;;;11.39;100.00;100560.22;5052009;28;20870;-52
2021/05/20 00:54:08;;;;;;;0.30;0.20;;;;;;;11.17;100.00;100569.69;5031361;28;20913;-52
2021/05/20 00:56:40;;;;;;;0.30;0.20;;;;;;;11.18;100.00;100558.13;5049284;28;20577;-52
2021/05/20 00:59:07;;;;;;;0.30;0.20;;;;;;;11.12;100.00;100563.63;5052830;28;20455;-52
2021/05/20 01:01:34;;;;;;;0.30;0.20;;;;;;;11.15;100.00;100574.19;5052279;28;20447;-52
2021/05/20 01:04:00;;;;;;;0.30;0.20;;;;;;;11.12;100.00;100569.81;5052520;28;20450;-52
2021/05/20 01:06:27;;;;;;;0.30;0.20;;;;;;;11.16;100.00;100571.47;5034490;28;20463;-52
2021/05/20 01:08:57;;;;;;;0.30;0.20;;;;;;;11.26;100.00;100566.78;5052590;28;20451;-52
2021/05/20 01:11:24;;;;;;;0.30;0.20;;;;;;;11.31;100.00;100572.84;5052172;28;20447;-52
2021/05/20 01:13:50;;;;;;;0.30;0.20;;;;;;;11.32;100.00;100571.94;5052445;28;20516;-52
2021/05/20 01:16:17;;;;;;;0.30;0.20;;;;;;;11.22;100.00;100575.75;5051978;28;20902;-52
2021/05/20 01:18:44;;;;;;;0.30;0.20;;;;;;;11.29;100.00;100580.00;5052116;28;20455;-52
2021/05/20 01:21:10;;;;;;;0.30;0.20;;;;;;;11.32;100.00;100579.91;5052155;28;20512;-52
2021/05/20 01:23:37;;;;;;;0.30;0.20;;;;;;;11.36;100.00;100578.03;5052253;28;20541;-52
2021/05/20 01:26:04;;;;;;;0.40;0.40;;;;;;;11.35;100.00;100573.63;5034386;28;20467;-52
2021/05/20 01:28:34;;;;;;;0.30;0.20;;;;;;;11.28;100.00;100580.91;5052176;28;20552;-52
2021/05/20 01:31:03;;;;;;;0.30;0.20;;;;;;;11.22;100.00;100571.28;5034181;28;20869;-52
2021/05/20 01:33:30;;;;;;;0.30;0.20;;;;;;;11.31;100.00;100575.50;5051924;28;21023;-52
2021/05/20 01:35:56;;;;;;;0.30;0.20;;;;;;;11.56;100.00;100576.59;5038652;28;20509;-52
2021/05/20 01:41:08;;;;;;;0.30;0.20;;;;;;;11.45;100.00;100594.63;5041163;28;20867;-52
2021/05/20 01:43:35;;;;;;;0.30;0.20;;;;;;;11.53;100.00;100592.66;5052292;28;20494;-52
2021/05/20 01:46:04;;;;;;;0.30;0.30;;;;;;;11.51;100.00;100589.16;5052272;28;20972;-52
2021/05/20 01:48:35;;;;;;;0.30;0.20;;;;;;;11.44;100.00;100589.38;5039494;28;20446;-52
2021/05/20 01:51:12;;;;;;;0.30;0.20;;;;;;;11.39;100.00;100588.63;5055621;28;20443;-52
2021/05/20 01:53:40;;;;;;;0.30;0.20;;;;;;;11.25;100.00;100586.34;5055794;28;20982;-52
2021/05/20 01:56:08;;;;;;;0.30;0.20;;;;;;;11.26;100.00;100591.63;5035488;28;20526;-52
2021/05/20 01:58:36;;;;;;;0.30;0.20;;;;;;;11.32;100.00;100587.91;5042269;28;20873;-52
2021/05/20 02:01:04;;;;;;;0.30;0.20;;;;;;;11.28;100.00;100596.88;5038494;28;20458;-52
2021/05/20 02:03:31;;;;;;;0.30;0.20;;;;;;;11.44;100.00;100600.00;5056102;28;20481;-52
2021/05/20 02:05:58;;;;;;;0.30;0.20;;;;;;;11.48;100.00;100586.56;5056075;28;20467;-52
2021/05/20 02:08:25;;;;;;;0.30;0.20;;;;;;;11.46;100.00;100592.84;5038539;28;20450;-52
2021/05/20 02:10:53;;;;;;;0.30;0.20;;;;;;;11.16;100.00;100594.53;5056007;28;20451;-52
2021/05/20 02:13:20;;;;;;;0.30;0.20;;;;;;;11.27;100.00;100593.34;5055578;28;20517;-52
2021/05/20 02:15:46;;;;;;;0.30;0.20;;;;;;;11.48;100.00;100599.00;5055010;28;20521;-52
2021/05/20 02:18:13;;;;;;;0.30;0.20;;;;;;;11.32;100.00;100598.53;5055241;28;20455;-52
2021/05/20 02:20:40;;;;;;;0.30;0.20;;;;;;;11.07;100.00;100602.75;5054915;28;20451;-52
2021/05/20 02:23:07;;;;;;;0.30;0.20;;;;;;;10.95;100.00;100602.16;5055072;28;20824;-52
2021/05/20 02:25:34;;;;;;;0.30;0.20;;;;;;;10.90;100.00;100605.84;5053958;28;20458;-52
2021/05/20 02:28:01;;;;;;;0.30;0.20;;;;;;;10.93;100.00;100613.75;5054738;28;20447;-52
2021/05/20 02:30:28;;;;;;;0.30;0.20;;;;;;;10.94;100.00;100616.34;5054917;28;20447;-52
2021/05/20 02:32:54;;;;;;;0.30;0.20;;;;;;;10.92;100.00;100622.63;5055000;28;20521;-52
2021/05/20 02:35:21;;;;;;;0.30;0.20;;;;;;;10.97;100.00;100620.75;5054957;28;20501;-52
2021/05/20 02:37:48;;;;;;;0.30;0.20;;;;;;;11.23;100.00;100618.28;5054566;28;20556;-52
2021/05/20 02:40:16;;;;;;;0.30;0.20;;;;;;;11.15;100.00;100616.75;5054558;28;20451;-52
2021/05/20 02:42:42;;;;;;;0.30;0.20;;;;;;;10.97;100.00;100626.06;5054892;28;20500;-52
2021/05/20 02:45:14;;;;;;;0.30;0.20;;;;;;;11.00;100.00;100630.44;5054497;28;20485;-52
2021/05/20 02:47:42;;;;;;;0.30;0.20;;;;;;;11.00;100.00;100627.78;5044506;28;20810;-52
2021/05/20 02:50:09;;;;;;;0.30;0.20;;;;;;;10.90;100.00;100620.00;5034144;28;20446;-52
2021/05/20 02:52:36;;;;;;;0.30;0.20;;;;;;;10.98;100.00;100627.81;5054473;28;20455;-52
2021/05/20 02:55:04;;;;;;;0.30;0.20;;;;;;;10.97;100.00;100626.94;5046738;28;21010;-52
2021/05/20 02:57:31;;;;;;;0.30;0.20;;;;;;;10.77;100.00;100631.00;5054299;28;20490;-52
2021/05/20 02:59:58;;;;;;;0.30;0.20;;;;;;;10.84;100.00;100625.50;5053665;28;20451;-52
2021/05/20 03:02:24;;;;;;;0.30;0.20;;;;;;;10.93;100.00;100627.91;5054458;28;20461;-52
2021/05/20 03:04:52;;;;;;;0.30;0.20;;;;;;;10.89;100.00;100628.03;5054380;28;20458;-52
2021/05/20 03:07:19;;;;;;;0.30;0.20;;;;;;;10.57;100.00;100621.72;5054243;28;20524;-52
2021/05/20 03:09:45;;;;;;;0.30;0.20;;;;;;;10.77;100.00;100623.00;5054324;28;20447;-52
2021/05/20 03:12:12;;;;;;;0.30;0.20;;;;;;;10.77;100.00;100620.34;5054470;28;20454;-52
2021/05/20 03:14:38;;;;;;;0.30;0.20;;;;;;;10.82;100.00;100621.09;5054083;28;20447;-52
2021/05/20 03:17:11;;;;;;;0.30;0.20;;;;;;;10.77;100.00;100623.00;5054067;28;21064;-52
2021/05/20 03:19:41;;;;;;;0.30;0.20;;;;;;;10.76;100.00;100619.47;5053808;28;20504;-52
2021/05/20 03:22:08;;;;;;;0.30;0.20;;;;;;;10.86;100.00;100621.00;5054006;28;20443;-52
2021/05/20 03:24:35;;;;;;;0.30;0.20;;;;;;;10.87;100.00;100629.88;5052985;28;20477;-52
2021/05/20 03:27:02;;;;;;;0.30;0.20;;;;;;;10.73;100.00;100634.63;5054022;28;20471;-52
2021/05/20 03:29:29;;;;;;;0.60;0.57;;;;;;;11.02;100.00;100628.59;5040769;28;20902;-52
2021/05/20 03:31:55;;;;;;;0.30;0.20;;;;;;;10.87;100.00;100629.88;5053619;28;20816;-52
2021/05/20 03:34:22;;;;;;;0.30;0.20;;;;;;;10.91;100.00;100628.88;5053470;28;20446;-52
2021/05/20 03:36:49;;;;;;;0.30;0.20;;;;;;;11.01;100.00;100632.19;5053248;28;20915;-52
2021/05/20 03:39:16;;;;;;;0.30;0.20;;;;;;;10.97;100.00;100626.94;5053640;28;20447;-52
2021/05/20 03:41:42;;;;;;;0.30;0.20;;;;;;;11.24;100.00;100632.50;5053437;28;20481;-52
2021/05/20 03:44:09;;;;;;;0.40;0.40;;;;;;;11.13;100.00;100637.19;5053184;28;20506;-52
2021/05/20 03:46:35;;;;;;;0.30;0.20;;;;;;;10.93;100.00;100635.03;5051929;28;20871;-52
2021/05/20 03:49:03;;;;;;;0.30;0.20;;;;;;;11.14;100.00;100631.84;5041218;28;21006;-52
2021/05/20 03:51:34;;;;;;;0.30;0.20;;;;;;;10.89;100.00;100644.00;5032363;28;20538;-52
2021/05/20 03:54:01;;;;;;;0.30;0.20;;;;;;;10.91;100.00;100636.84;5039176;28;20510;-52
2021/05/20 03:56:27;;;;;;;0.30;0.20;;;;;;;10.86;100.00;100644.94;5048439;28;20495;-52
2021/05/20 03:58:54;;;;;;;0.30;0.20;;;;;;;11.00;100.00;100644.59;5052974;28;20450;-52
2021/05/20 04:01:20;;;;;;;0.30;0.20;;;;;;;11.05;100.00;100644.47;5052656;28;20815;-52
2021/05/20 04:03:48;;;;;;;0.60;0.60;;;;;;;11.35;100.00;100651.69;5053034;28;20805;-52
2021/05/20 04:06:14;;;;;;;0.30;0.20;;;;;;;11.31;100.00;100652.69;5052971;28;20466;-52
2021/05/20 04:08:41;;;;;;;0.30;0.20;;;;;;;11.14;100.00;100661.09;5052893;28;20932;-52
2021/05/20 04:11:08;;;;;;;0.30;0.20;;;;;;;11.14;100.00;100670.88;5052841;28;20482;-52
2021/05/20 04:13:40;;;;;;;0.30;0.20;;;;;;;11.03;100.00;100670.25;5052624;28;20450;-52
2021/05/20 04:16:08;;;;;;;0.30;0.20;;;;;;;11.06;100.00;100675.50;5035073;28;20593;-52
2021/05/20 04:18:34;;;;;;;0.30;0.20;;;;;;;10.97;100.00;100676.63;5052681;28;20490;-52
2021/05/20 04:21:02;;;;;;;0.50;0.50;;;;;;;10.97;100.00;100674.81;5052557;28;20455;-52
2021/05/20 04:23:29;;;;;;;4.33;1.00;;;;;;;10.86;100.00;100679.53;5052718;28;20482;-52
2021/05/20 04:25:56;;;;;;;0.30;0.20;;;;;;;11.06;100.00;100673.72;5051648;28;20517;-52
2021/05/20 04:28:22;;;;;;;0.30;0.20;;;;;;;11.06;100.00;100687.00;5052325;28;20477;-52
2021/05/20 04:30:49;;;;;;;0.30;0.20;;;;;;;11.03;100.00;100688.88;5052400;28;20512;-52
2021/05/20 04:33:16;;;;;;;0.30;0.20;;;;;;;11.07;100.00;100685.22;5052599;28;20462;-52
2021/05/20 04:35:43;;;;;;;0.30;0.20;;;;;;;11.04;100.00;100685.31;5052558;28;20475;-53
2021/05/20 04:38:10;;;;;;;0.30;0.20;;;;;;;11.09;100.00;100688.72;5052607;28;20552;-51
2021/05/20 04:40:39;;;;;;;0.30;0.20;;;;;;;11.15;100.00;100691.25;5052542;28;20451;-52
2021/05/20 04:43:06;;;;;;;0.30;0.20;;;;;;;11.24;100.00;100699.88;5067374;22;20816;-50
2021/05/20 04:45:34;;;;;;;0.30;0.20;;;;;;;11.28;100.00;100698.88;5050468;28;20451;-50
2021/05/20 04:48:02;;;;;;;0.30;0.20;;;;;;;11.30;100.00;100701.50;5052186;28;20497;-49
2021/05/20 04:50:30;;;;;;;0.30;0.20;;;;;;;11.37;100.00;100703.09;5039049;28;20450;-50
2021/05/20 04:52:57;;;;;;;0.30;0.20;;;;;;;11.32;100.00;100702.34;5052133;28;20462;-52
2021/05/20 04:55:23;;;;;;;0.30;0.20;;;;;;;11.33;100.00;100704.09;5039314;28;20932;-52
2021/05/20 04:57:50;;;;;;;0.30;0.20;;;;;;;11.34;100.00;100708.50;5045733;28;20593;-51
2021/05/20 05:00:17;;;;;;;0.30;0.20;;;;;;;11.38;100.00;100714.63;5052043;28;21025;-52
2021/05/20 05:02:48;;;;;;;0.40;0.40;;;;;;;11.41;100.00;100718.09;5052184;28;20571;-52
2021/05/20 05:05:15;;;;;;;0.30;0.20;;;;;;;11.35;100.00;100722.66;5052144;28;20461;-51
2021/05/20 05:07:43;;;;;;;0.30;0.20;;;;;;;11.41;100.00;100723.41;5051873;28;20449;-52
2021/05/20 05:10:10;;;;;;;0.30;0.20;;;;;;;11.55;100.00;100717.75;5051975;28;20450;-52
2021/05/20 05:12:37;;;;;;;0.30;0.20;;;;;;;11.52;100.00;100723.16;5051971;28;20450;-51
2021/05/20 05:15:05;;;;;;;0.30;0.20;;;;;;;11.61;100.00;100732.66;5051790;28;20477;-52
2021/05/20 05:17:32;;;;;;;0.30;0.20;;;;;;;11.69;100.00;100736.91;5051835;28;20569;-51
2021/05/20 05:19:59;;;;;;;0.30;0.20;;;;;;;11.82;100.00;100730.38;5051981;28;20457;-51
2021/05/20 05:22:25;;;;;;;0.30;0.20;;;;;;;12.03;100.00;100736.88;5051571;28;20806;-51
2021/05/20 05:24:52;;;;;;;0.30;0.20;;;;;;;12.08;100.00;100737.66;5046006;28;20475;-52
2021/05/20 05:27:19;;;;;;;0.30;0.20;;;;;;;11.89;100.00;100735.50;5051339;28;20823;-52
2021/05/20 05:29:46;;;;;;;0.30;0.20;;;;;;;11.83;100.00;100741.88;5055554;28;20458;-51
2021/05/20 05:32:13;;;;;;;0.30;0.20;;;;;;;11.80;100.00;100741.97;5037869;28;20469;-51
2021/05/20 05:34:40;;;;;;;0.30;0.20;;;;;;;12.03;100.00;100744.00;5055659;28;20478;-51
2021/05/20 05:37:07;;;;;;;0.30;0.20;;;;;;;12.04;100.00;100745.75;5055346;28;20876;-51
2021/05/20 05:39:33;;;;;;;0.30;0.20;;;;;;;11.95;100.00;100749.56;5055618;28;20466;-51
2021/05/20 05:42:00;;;;;;;0.40;0.30;;;;;;;11.99;100.00;100750.34;5055544;28;20451;-52
2021/05/20 05:44:27;;;;;;;0.30;0.20;;;;;;;12.55;100.00;100753.22;5055215;28;20532;-52
2021/05/20 05:46:53;;;;;;;0.30;0.20;;;;;;;12.74;100.00;100754.41;5051457;28;21007;-51
2021/05/20 05:49:30;;;;;;;0.30;0.20;;;;;;;12.64;99.79;100759.16;5045639;28;20854;-52
2021/05/20 05:52:01;;;;;;;0.30;0.20;;;;;;;13.20;98.98;100758.38;5049951;28;20443;-51
2021/05/20 05:54:28;;;;;;;0.30;0.20;;;;;;;13.88;95.77;100750.72;5047629;28;20542;-51
2021/05/20 05:56:54;;;;;;;0.30;0.20;;;;;;;14.65;92.18;100751.50;5041804;28;20442;-52
2021/05/20 05:59:21;;;;;;;0.30;0.20;;;;;;;14.97;90.54;100752.97;5055341;28;20461;-52
2021/05/20 06:01:48;;;;;;;0.30;0.20;;;;;;;15.19;87.33;100758.31;5037446;28;20457;-51
2021/05/20 06:04:15;;;;;;;0.30;0.20;;;;;;;15.54;85.95;100756.03;5055055;28;20466;-52
2021/05/20 06:06:43;;;;;;;0.30;0.20;;;;;;;15.63;85.87;100751.19;5055144;28;20500;-52
2021/05/20 06:09:10;;;;;;;0.33;0.20;;;;;;;15.62;84.74;100749.47;5055416;28;20477;-52
2021/05/20 06:11:38;;;;;;;0.30;0.30;;;;;;;15.15;86.24;100750.47;5048294;28;20944;-52
2021/05/20 06:14:07;;;;;;;0.30;0.20;;;;;;;15.37;85.84;100754.91;5048348;28;20620;-51
2021/05/20 06:16:39;;;;;;;0.30;0.20;;;;;;;15.24;85.04;100763.50;5054856;28;20524;-51
2021/05/20 06:19:07;;;;;;;0.40;0.20;;;;;;;15.48;83.92;100764.31;5054708;28;20540;-51
2021/05/20 06:21:35;;;;;;;0.40;0.20;;;;;;;15.09;84.33;100760.50;5054670;28;20512;-52
2021/05/20 06:24:02;;;;;;;0.40;0.20;;;;;;;15.35;83.35;100753.22;5053424;28;20569;-51
2021/05/20 06:26:29;;;;;;;0.30;0.20;;;;;;;15.08;81.80;100758.78;5048651;28;20533;-51
2021/05/20 06:28:56;;;;;;;0.30;0.20;;;;;;;14.71;83.19;100759.31;5041097;28;20444;-51
2021/05/20 06:31:23;;;;;;;0.30;0.20;;;;;;;14.44;85.07;100755.00;5054306;28;21001;-51
2021/05/20 06:33:50;;;;;;;0.30;0.20;;;;;;;14.77;84.18;100756.41;5054416;28;20524;-52
2021/05/20 06:36:17;;;;;;;0.30;0.20;;;;;;;15.10;83.82;100756.03;5053305;28;20458;-51
2021/05/20 06:38:44;;;;;;;0.37;0.20;;;;;;;15.21;82.37;100769.84;5054263;28;20501;-51
2021/05/20 06:41:11;;;;;;;0.30;0.20;;;;;;;15.68;81.22;100769.75;5054467;28;20504;-51
2021/05/20 06:43:38;;;;;;;0.30;0.20;;;;;;;15.50;81.03;100760.66;5053912;28;20481;-51
2021/05/20 06:46:06;;;;;;;0.40;0.20;;;;;;;15.42;81.00;100762.75;5036863;28;20443;-51
2021/05/20 06:48:33;;;;;;;0.30;0.20;;;;;;;15.99;80.54;100767.50;5040325;28;20473;-51
2021/05/20 06:51:01;;;;;;;0.30;0.20;;;;;;;15.84;78.82;100765.47;5054255;28;20475;-51
2021/05/20 06:53:30;;;;;;;0.40;0.20;;;;;;;15.83;79.96;100768.25;5040366;28;20888;-52
2021/05/20 06:56:03;;;;;;;0.30;0.20;;;;;;;15.72;79.05;100767.81;5041935;28;20502;-52
2021/05/20 07:01:17;;;;;;;0.30;0.20;;;;;;;15.75;80.25;100775.72;5054668;28;20459;-52
2021/05/20 07:03:44;;;;;;;0.30;0.20;;;;;;;15.16;82.42;100776.31;5055043;28;20477;-52
2021/05/20 07:06:12;;;;;;;0.40;0.20;;;;;;;15.19;82.44;100786.91;5054515;28;20451;-52
2021/05/20 07:08:40;;;;;;;0.30;0.20;;;;;;;15.48;81.11;100786.59;5054219;28;20458;-52
2021/05/20 07:11:07;;;;;;;0.30;0.20;;;;;;;14.99;81.78;100782.34;5055007;28;20443;-52
2021/05/20 07:13:34;;;;;;;0.30;0.20;;;;;;;15.11;83.32;100785.44;5054018;28;20471;-52
2021/05/20 07:16:01;;;;;;;0.30;0.20;;;;;;;16.13;80.77;100783.00;5054285;28;20450;-52
2021/05/20 07:18:28;;;;;;;0.40;0.20;;;;;;;15.85;81.46;100785.13;5054070;28;21007;-52
2021/05/20 07:20:55;;;;;;;0.37;0.20;;;;;;;15.74;81.40;100790.06;5053945;28;20458;-52
2021/05/20 07:23:22;;;;;;;0.37;0.20;;;;;;;15.79;80.07;100785.41;5053941;28;20517;-52
2021/05/20 07:25:49;;;;;;;0.70;0.70;;;;;;;15.83;80.48;100784.31;5050919;28;20538;-52
2021/05/20 07:28:16;;;;;;;0.40;0.30;;;;;;;15.94;80.22;100782.94;5044276;28;20454;-52
2021/05/20 07:30:42;;;;;;;0.30;0.20;;;;;;;15.50;80.72;100786.56;5053496;28;20454;-52
2021/05/20 07:33:11;;;;;;;0.40;0.20;;;;;;;15.36;83.06;100779.97;5053602;28;20503;-52
2021/05/20 07:35:37;;;;;;;0.40;0.37;;;;;;;15.09;84.38;100781.94;5053664;28;20947;-52
2021/05/20 07:38:05;;;;;;;0.40;0.20;;;;;;;15.59;81.40;100781.72;5053567;28;20494;-52
2021/05/20 07:40:31;;;;;;;0.30;0.20;;;;;;;15.50;81.19;100789.25;5053607;28;20466;-52
2021/05/20 07:42:58;;;;;;;0.40;0.20;;;;;;;15.04;81.65;100786.59;5053771;28;20451;-52
2021/05/20 07:45:25;;;;;;;0.43;0.40;;;;;;;14.93;82.29;100783.44;5053468;28;20830;-51
2021/05/20 07:47:51;;;;;;;0.30;0.20;;;;;;;15.37;83.12;100792.44;5041526;28;20869;-52
2021/05/20 07:50:18;;;;;;;0.43;0.43;;;;;;;15.25;81.90;100789.38;5051615;28;20525;-52
2021/05/20 07:52:45;;;;;;;0.30;0.20;;;;;;;15.10;80.97;100791.72;5041497;28;20448;-52
2021/05/20 07:55:12;;;;;;;0.30;0.20;;;;;;;15.35;80.72;100793.41;5028872;28;20593;-51
2021/05/20 07:57:39;;;;;;;0.83;0.83;;;;;;;15.28;80.44;100791.91;5044937;28;20486;-51
2021/05/20 08:00:08;;;;;;;0.30;0.20;;;;;;;15.44;78.53;100781.44;5052938;28;20451;-52
2021/05/20 08:02:50;;;;;;;0.30;0.30;;;;;;;15.92;78.55;100787.50;5052926;28;20454;-52
2021/05/20 08:05:26;;;;;;;0.40;0.20;;;;;;;15.40;77.53;100786.94;5052701;28;20439;-52
2021/05/20 08:08:17;;;;;;;0.30;0.20;;;;;;;15.94;77.84;100793.66;5052518;28;20915;-52
2021/05/20 08:10:50;;;;;;;0.40;0.20;;;;;;;16.39;77.72;100786.34;5052607;28;20443;-52
2021/05/20 08:13:17;;;;;;;0.30;0.20;;;;;;;15.95;77.19;100795.41;5032644;28;20530;-52
2021/05/20 08:15:44;;;;;;;1.57;1.53;;;;;;;15.62;77.08;100783.41;5046093;28;20948;-52
2021/05/20 08:18:11;;;;;;;0.40;0.40;;;;;;;15.63;78.43;100791.41;5052579;28;20548;-51
2021/05/20 08:20:37;;;;;;;0.40;0.20;;;;;;;16.02;79.06;100796.00;5052519;28;20450;-51
2021/05/20 08:23:04;;;;;;;0.40;0.23;;;;;;;15.85;79.28;100791.34;5052443;28;20455;-52
2021/05/20 08:25:31;;;;;;;0.60;0.57;;;;;;;16.14;78.83;100795.47;5051500;28;20939;-52
2021/05/20 08:27:58;;;;;;;0.30;0.20;;;;;;;15.54;79.23;100793.53;5022259;28;20451;-52
2021/05/20 08:30:25;;;;;;;0.40;0.30;;;;;;;15.54;80.09;100793.53;5052482;28;20450;-52
2021/05/20 08:32:52;;;;;;;0.30;0.20;;;;;;;15.38;80.31;100786.13;5052181;28;20508;-52
2021/05/20 08:35:18;;;;;;;0.40;0.20;;;;;;;15.43;79.80;100785.94;5052130;28;20974;-52
2021/05/20 08:37:45;;;;;;;0.33;0.20;;;;;;;15.78;79.94;100786.34;5051446;28;20489;-52
2021/05/20 08:40:13;;;;;;;0.30;0.20;;;;;;;15.79;79.50;100786.25;5052183;28;20437;-52
2021/05/20 08:42:40;;;;;;;0.40;0.20;;;;;;;16.42;78.70;100787.06;5052088;28;20458;-52
2021/05/20 08:45:16;;;;;;;0.40;0.30;;;;;;;16.09;77.34;100778.72;5051813;28;20474;-52
2021/05/20 08:47:45;;;;;;;2.83;1.00;;;;;;;15.86;78.38;100782.38;5041695;28;20959;-52
2021/05/20 08:50:14;;;;;;;0.50;0.40;;;;;;;15.50;78.76;100786.56;5049942;28;20450;-52
2021/05/20 08:52:42;;;;;;;0.40;0.20;;;;;;;16.00;78.63;100787.16;5040702;28;20875;-52
2021/05/20 08:55:13;;;;;;;0.40;0.20;;;;;;;16.41;78.17;100781.78;5044985;28;20852;-52
2021/05/20 08:57:39;;;;;;;0.40;0.20;;;;;;;17.17;75.14;100784.53;5044701;28;20451;-52
2021/05/20 09:00:12;;;;;;;0.40;0.30;;;;;;;17.09;74.17;100778.63;5038649;28;20446;-52
2021/05/20 09:02:39;;;;;;;0.40;0.20;;;;;;;17.06;75.00;100776.09;5056128;28;20450;-52
2021/05/20 09:05:18;;;;;;;0.40;0.20;;;;;;;17.72;72.46;100772.91;5055932;28;20462;-52
2021/05/20 09:07:53;;;;;;;0.40;0.20;;;;;;;16.76;73.25;100774.84;5056429;28;20450;-52
2021/05/20 09:10:25;;;;;;;0.40;0.30;;;;;;;15.92;76.66;100778.56;5056184;28;20450;-51
2021/05/20 09:13:04;;;;;;;0.40;0.20;;;;;;;16.27;77.30;100772.53;5055790;28;20452;-51
2021/05/20 09:15:41;;;;;;;0.40;0.20;;;;;;;17.17;74.51;100773.78;5038148;28;20459;-51
2021/05/20 09:18:18;;;;;;;0.40;0.20;;;;;;;16.40;74.19;100767.50;5035746;28;20495;-52
2021/05/20 09:20:57;;;;;;;0.40;0.20;;;;;;;16.84;74.34;100767.28;5034285;28;20446;-52
2021/05/20 09:23:26;;;;;;;0.40;0.20;;;;;;;17.10;73.91;100769.63;5055605;28;20463;-51
2021/05/20 09:26:03;;;;;;;0.40;0.20;;;;;;;17.61;72.03;100773.41;5052017;28;20505;-52
2021/05/20 09:28:32;;;;;;;0.40;0.20;;;;;;;17.86;68.91;100766.84;5048383;28;20443;-52
2021/05/20 09:30:59;;;;;;;0.40;0.20;;;;;;;18.31;69.24;100769.81;5018358;28;20452;-51
2021/05/20 09:33:26;;;;;;;0.40;0.20;;;;;;;18.69;68.66;100764.22;5049001;28;20467;-52
2021/05/20 09:35:53;;;;;;;0.40;0.20;;;;;;;18.83;66.27;100763.47;5055633;28;20455;-52
2021/05/20 09:38:21;;;;;;;0.80;0.80;;;;;;;18.52;66.41;100757.03;5054763;28;20520;-52
2021/05/20 09:40:51;;;;;;;0.40;0.20;;;;;;;18.85;67.28;100761.56;5055563;28;20801;-52
2021/05/20 09:43:19;;;;;;;0.40;0.30;;;;;;;18.73;66.93;100764.94;5055527;28;20470;-52
2021/05/20 09:45:48;;;;;;;0.40;0.20;;;;;;;18.23;66.31;100757.72;5055159;28;20881;-52
2021/05/20 09:48:15;;;;;;;0.40;0.20;;;;;;;18.14;68.35;100748.31;5042928;28;20447;-52
2021/05/20 09:50:47;;;;;;;0.40;0.20;;;;;;;18.59;66.88;100749.50;5054241;28;20936;-52
2021/05/20 09:53:19;;;;;;;0.40;0.20;;;;;;;17.88;67.31;100746.09;5041442;28;20517;-52
2021/05/20 09:55:54;;;;;;;0.40;0.20;;;;;;;18.71;65.88;100745.28;5045503;28;20448;-52
2021/05/20 09:58:23;;;;;;;0.50;0.30;;;;;;;18.93;65.40;100754.81;5052861;28;20581;-52
2021/05/20 10:00:50;;;;;;;1.07;0.97;;;;;;;18.21;66.45;100751.53;5055174;28;20490;-52
2021/05/20 10:03:19;;;;;;;0.40;0.20;;;;;;;18.80;67.40;100748.34;5054973;28;20471;-52
2021/05/20 10:05:53;;;;;;;0.40;0.20;;;;;;;18.44;68.02;100736.84;5054803;28;20794;-52
2021/05/20 10:08:22;;;;;;;0.40;0.20;;;;;;;18.22;66.41;100745.19;5054912;28;20965;-51
2021/05/20 10:10:54;;;;;;;0.40;0.20;;;;;;;18.04;67.81;100741.66;5054926;28;20455;-51
2021/05/20 10:13:26;;;;;;;0.40;0.20;;;;;;;18.79;68.12;100729.59;5035027;28;20888;-52
2021/05/20 10:15:55;;;;;;;0.40;0.20;;;;;;;18.46;66.15;100727.75;5049764;28;21060;-51
2021/05/20 10:18:24;;;;;;;0.40;0.20;;;;;;;18.54;65.19;100730.03;5054716;28;20703;-52
2021/05/20 10:20:54;;;;;;;0.40;0.30;;;;;;;19.38;65.14;100730.72;5055141;28;20508;-52
2021/05/20 10:23:23;;;;;;;0.40;0.20;;;;;;;19.60;63.48;100731.25;5054699;28;20975;-52
2021/05/20 10:25:52;;;;;;;0.40;0.20;;;;;;;19.39;64.75;100727.06;5051828;28;20426;-52
2021/05/20 10:28:20;;;;;;;0.40;0.20;;;;;;;19.20;64.61;100716.47;5044706;28;20425;-52
2021/05/20 10:30:50;;;;;;;0.40;0.20;;;;;;;19.42;66.10;100729.56;5054410;28;20451;-52
2021/05/20 10:33:23;;;;;;;0.40;0.30;;;;;;;18.96;68.16;100726.81;5054685;28;20498;-51
2021/05/20 10:35:52;;;;;;;0.40;0.20;;;;;;;19.22;67.83;100726.19;5054577;28;20951;-51
2021/05/20 10:38:39;;;;;;;0.40;0.20;;;;;;;19.68;64.78;100718.16;5054493;28;20544;-52
2021/05/20 10:41:13;;;;;;;0.40;0.20;;;;;;;19.01;65.71;100726.53;5033654;28;20451;-52
2021/05/20 10:43:42;;;;;;;0.40;0.20;;;;;;;19.02;66.37;100709.41;5064453;22;20491;-55
2021/05/20 10:46:16;;;;;;;0.40;0.20;;;;;;;18.63;65.42;100718.72;5054335;28;20439;-54
2021/05/20 10:48:54;;;;;;;0.40;0.20;;;;;;;18.36;67.74;100715.72;5054489;28;20446;-54
2021/05/20 10:51:25;;;;;;;0.40;0.40;;;;;;;17.68;68.23;100717.50;5036550;28;20454;-55
2021/05/20 10:54:18;;;;;;;0.40;0.20;;;;;;;18.47;67.39;100712.44;5046539;28;20519;-55
2021/05/20 10:56:44;;;;;;;0.40;0.20;;;;;;;18.20;65.94;100726.44;5034001;28;20464;-54
2021/05/20 10:59:30;;;;;;;0.40;0.20;;;;;;;18.61;64.88;100723.34;5046699;28;20493;-54
2021/05/20 11:01:57;;;;;;;0.40;0.20;;;;;;;18.47;65.15;100712.44;5041316;28;20481;-55
2021/05/20 11:04:35;;;;;;;0.40;0.20;;;;;;;18.41;63.06;100710.97;5053730;28;20985;-54
2021/05/20 11:07:03;;;;;;;0.40;0.20;;;;;;;18.63;64.23;100718.72;5054143;28;20516;-55
2021/05/20 11:09:44;;;;;;;0.40;0.20;;;;;;;18.28;63.32;100718.84;5053597;28;20447;-55
2021/05/20 11:12:10;;;;;;;0.40;0.20;;;;;;;18.23;65.49;100712.84;5045163;28;20462;-54
2021/05/20 11:14:38;;;;;;;0.40;0.20;;;;;;;18.21;65.51;100713.84;5037647;28;20885;-55
2021/05/20 11:17:36;;;;;;;0.40;0.20;;;;;;;18.60;66.01;100714.41;5053717;28;20509;-55
2021/05/20 11:20:36;;;;;;;0.40;0.20;;;;;;;17.99;67.70;100709.63;5033572;28;20861;-54
2021/05/20 11:23:15;;;;;;;0.40;0.20;;;;;;;18.66;65.88;100709.69;5041493;28;20459;-55
2021/05/20 11:25:43;;;;;;;0.40;0.20;;;;;;;18.81;64.10;100707.00;5033695;28;20951;-55
2021/05/20 11:28:10;;;;;;;0.40;0.20;;;;;;;18.68;65.46;100702.38;5042430;28;20450;-55
2021/05/20 11:30:37;;;;;;;0.77;0.77;;;;;;;19.04;64.88;100704.81;5052844;28;20943;-55
2021/05/20 11:33:05;;;;;;;0.40;0.20;;;;;;;18.48;66.17;100700.72;5052953;28;20451;-55